map of LPOV home
LPOV - Airport
Location
City:  Ovar, Aveiro, Portugal
Name:Montijo AB
Old (Alt.):Manoeuvre Aerodrome Nr 1
ICAO:LPOV

Details
Type:Airport (Aerodrome, Airfield)
Use:Military
Latitude:4054'57"N (40.915867)
Longitude:838'45"W (-8.645918)
Datum:WGS 1984
Elevation:56 ft (17 m)
Variation:2.16W (WMM2015 magnetic declination)
0.13 annual change
Runways:1
Longest:8005 × 148 ft (2440 × 45 m), paved

Time
Time Zone:UTC+0 (DST+1)
Local Time:

Weather
METAR:LPOV 240800Z 36012KT 9999 SCT012 BKN018 13/12 Q1018
TAF:LPOV 240510Z 2406/2506 35015KT 9999 FEW006 SCT012 BKN020
TEMPO 2406/2413 35015G28KT SCT008 BKN014 PROB30
TEMPO 2406/2409 2000 -RADZ BR BKN006
BECMG 2413/2415 SCT015 SCT030
TEMPO 2413/2420 35015G25KT
BECMG 2421/2423 02008KT CAVOK

Related Locations
Nearby:
Farthest:NZKM: 12392 mi / 19944 km
Karamea, WTC, NZ

Find:

   beyond  
but within

Other Information
Maps:
NOTAMs:
Links:
Sources:

  
  • flag of Portugal
  

Sectional Chart

Flight Planning
at skyvector.com

Satellite Image

Google Maps Satellite view

 

Copyright © 2004-2019 Karl L. Swartz. All rights reserved.
The Great Circle Mapper name and logo are trademarks of the Great Circle Mapper.
All other trademarks mentioned herein belong to their respective owners.
Please see credits for attibutions and further copyright information.

  Follow gcmap on Facebook Follow gcmap on Twitter Follow gcmap on Google+ GCmap on LinkedIn

hCard Microformat

Geo Microformat